Time;durP1;ratioP1;P1;durP2;ratioP2;P2;SDS_P1;SDS_P2;PMS_P1;PMS_P2;Temp;Humidity;BMP_temperature;BMP_pressure;BME280_temperature;BME280_humidity;BME280_pressure;Samples;Min_cycle;Max_cycle;Signal;HPM_P1;HPM_P2
2022/01/16 00:00:17;;;;;;;82.78;32.25;;;-1.90;99.90;;;;;;4994402;28;20826;-79
2022/01/16 00:05:29;;;;;;;68.00;30.77;;;-2.00;99.90;;;;;;4994226;28;20723;-79
2022/01/16 00:07:56;;;;;;;61.95;28.55;;;-2.10;99.90;;;;;;4992881;28;20283;-80
2022/01/16 00:10:23;;;;;;;65.85;28.13;;;-2.10;99.90;;;;;;4992510;28;20265;-79
2022/01/16 00:12:49;;;;;;;52.63;24.27;;;-2.10;99.90;;;;;;4994532;28;20177;-78
2022/01/16 00:15:22;;;;;;;47.92;23.35;;;-2.20;99.90;;;;;;4992700;28;20836;-79
2022/01/16 00:17:56;;;;;;;91.78;25.50;;;-2.30;99.90;;;;;;4992697;28;20261;-79
2022/01/16 00:20:23;;;;;;;55.88;24.85;;;-2.30;99.90;;;;;;4994379;28;20588;-79
2022/01/16 00:22:50;;;;;;;47.08;22.02;;;-2.40;99.90;;;;;;4992326;28;20417;-78
2022/01/16 00:25:16;;;;;;;41.65;22.42;;;-2.40;99.90;;;;;;4993588;28;20647;-80
2022/01/16 00:27:42;;;;;;;37.35;21.20;;;-2.50;99.90;;;;;;4992632;28;20998;-78
2022/01/16 00:30:09;;;;;;;35.97;19.48;;;-2.50;99.90;;;;;;4992761;28;20208;-79
2022/01/16 00:32:35;;;;;;;43.90;21.10;;;-2.50;99.90;;;;;;4992731;28;20273;-79
2022/01/16 00:35:01;;;;;;;34.73;19.67;;;-2.40;99.90;;;;;;4992451;28;20285;-78
2022/01/16 00:37:27;;;;;;;42.67;20.73;;;-2.40;99.90;;;;;;4991957;28;20690;-79
2022/01/16 00:39:52;;;;;;;39.80;20.37;;;-2.40;99.90;;;;;;4992267;28;20285;-78
2022/01/16 00:42:18;;;;;;;37.60;19.50;;;-2.40;99.90;;;;;;4992090;28;20205;-79
2022/01/16 00:44:44;;;;;;;41.50;18.97;;;-2.30;99.90;;;;;;4997470;28;20254;-79
2022/01/16 00:47:09;;;;;;;30.07;18.57;;;-2.20;99.90;;;;;;4963498;28;20528;-78
2022/01/16 00:49:39;;;;;;;35.13;18.87;;;-2.20;99.90;;;;;;4980093;28;20185;-79
2022/01/16 00:52:05;;;;;;;31.67;17.42;;;-2.20;99.90;;;;;;4997095;28;20198;-79
2022/01/16 00:54:31;;;;;;;33.92;16.83;;;-2.30;99.90;;;;;;4996065;28;20597;-80
2022/01/16 00:56:56;;;;;;;33.13;17.80;;;-2.30;99.90;;;;;;4996569;28;20187;-77
2022/01/16 00:59:22;;;;;;;37.60;18.47;;;-2.30;99.90;;;;;;4996265;28;20186;-77
2022/01/16 01:01:48;;;;;;;28.67;15.87;;;-2.30;99.90;;;;;;4978941;28;20722;-78
2022/01/16 01:04:14;;;;;;;31.98;15.45;;;-2.40;99.90;;;;;;4996129;28;20209;-77
2022/01/16 01:06:40;;;;;;;32.00;14.77;;;-2.40;99.90;;;;;;4994564;28;20181;-77
2022/01/16 01:09:06;;;;;;;26.50;15.23;;;-2.40;99.90;;;;;;4995426;28;20859;-76
2022/01/16 01:11:32;;;;;;;30.23;15.43;;;-2.40;99.90;;;;;;4993835;28;20193;-80
2022/01/16 01:16:37;;;;;;;29.80;15.43;;;-2.40;99.90;;;;;;4995661;28;20252;-80
2022/01/16 01:19:03;;;;;;;26.85;14.52;;;-2.50;99.90;;;;;;4997343;28;20209;-79
2022/01/16 01:21:29;;;;;;;28.93;15.80;;;-2.50;99.90;;;;;;4997490;28;20186;-79
2022/01/16 01:23:59;;;;;;;30.10;14.50;;;-2.50;99.90;;;;;;4995614;28;20632;-79
2022/01/16 01:26:30;;;;;;;26.13;13.98;;;-2.50;99.90;;;;;;4995274;28;20189;-78
2022/01/16 01:28:56;;;;;;;35.63;18.48;;;-2.60;99.90;;;;;;4978967;28;20182;-78
2022/01/16 01:31:22;;;;;;;26.83;14.67;;;-2.60;99.90;;;;;;4995940;28;20214;-79
2022/01/16 01:33:47;;;;;;;35.93;17.63;;;-2.60;99.90;;;;;;4996113;28;20280;-78
2022/01/16 01:36:13;;;;;;;31.43;17.00;;;-2.60;99.90;;;;;;4995905;28;20196;-78
2022/01/16 01:38:38;;;;;;;28.57;16.37;;;-2.60;99.90;;;;;;4994604;28;20730;-78
2022/01/16 01:41:04;;;;;;;29.73;14.47;;;-2.60;99.90;;;;;;4993968;28;20690;-79
2022/01/16 01:51:42;;;;;;;30.85;15.27;;;-2.50;99.90;;;;;;4994984;28;20184;-78
2022/01/16 01:54:08;;;;;;;25.52;13.48;;;-2.50;99.90;;;;;;4993898;28;20224;-79
2022/01/16 01:56:36;;;;;;;21.15;13.07;;;-2.50;99.90;;;;;;4994311;28;20556;-78
2022/01/16 01:59:03;;;;;;;22.98;13.05;;;-2.60;99.90;;;;;;4994449;28;20201;-78
2022/01/16 02:01:30;;;;;;;32.63;16.70;;;-2.60;99.90;;;;;;4993457;28;20648;-79
2022/01/16 02:03:56;;;;;;;29.05;15.00;;;-2.60;99.90;;;;;;4992801;28;20297;-78
2022/01/16 02:06:24;;;;;;;27.97;14.70;;;-2.50;99.90;;;;;;4991861;28;20677;-79
2022/01/16 02:08:52;;;;;;;27.58;13.60;;;-2.60;99.90;;;;;;4992487;28;20422;-78
2022/01/16 02:11:22;;;;;;;29.38;15.55;;;-2.60;99.90;;;;;;4994608;28;20201;-78
2022/01/16 02:13:58;;;;;;;29.73;15.10;;;-2.70;99.90;;;;;;4995677;28;20177;-77
2022/01/16 02:31:00;;;;;;;28.02;15.02;;;-2.60;99.90;;;;;;4995518;28;20272;-79
2022/01/16 02:36:21;;;;;;;33.83;14.85;;;-2.60;99.90;;;;;;4995101;28;20201;-80
2022/01/16 02:38:47;;;;;;;32.40;15.27;;;-2.50;99.90;;;;;;4995069;28;20185;-79
2022/01/16 02:41:13;;;;;;;29.25;14.65;;;-2.50;99.90;;;;;;4993802;28;20227;-79
2022/01/16 02:43:45;;;;;;;33.40;15.87;;;-2.40;99.90;;;;;;4993968;28;20265;-79
2022/01/16 02:48:49;;;;;;;40.03;17.85;;;-2.40;99.90;;;;;;4993159;28;20181;-79
2022/01/16 02:51:20;;;;;;;41.10;19.55;;;-2.30;99.90;;;;;;4994546;28;20186;-79
2022/01/16 02:53:49;;;;;;;45.95;19.35;;;-2.30;99.90;;;;;;4992323;28;20705;-79
2022/01/16 02:56:16;;;;;;;44.35;19.80;;;-2.20;99.90;;;;;;4994961;28;20191;-79
2022/01/16 02:58:43;;;;;;;43.90;18.20;;;-2.20;99.90;;;;;;4993055;28;20219;-79
2022/01/16 03:01:09;;;;;;;44.25;18.75;;;-2.20;99.90;;;;;;4994507;28;20182;-80
2022/01/16 03:03:34;;;;;;;43.65;19.88;;;-2.20;99.90;;;;;;4994849;28;20272;-79
2022/01/16 03:06:00;;;;;;;40.97;18.07;;;-2.20;99.90;;;;;;4993203;28;20304;-80
2022/01/16 03:08:26;;;;;;;50.47;19.40;;;-2.30;99.90;;;;;;4976749;28;20189;-79
2022/01/16 03:13:40;;;;;;;109.40;24.95;;;-2.30;99.90;;;;;;4993603;28;20211;-80
2022/01/16 03:16:06;;;;;;;203.05;28.08;;;-2.30;99.90;;;;;;4994371;28;20181;-79
2022/01/16 03:23:42;;;;;;;262.23;29.15;;;-2.40;99.90;;;;;;4995712;28;20424;-79
2022/01/16 03:26:07;;;;;;;237.10;34.87;;;-2.40;99.90;;;;;;4993378;28;20595;-80
2022/01/16 03:28:33;;;;;;;381.37;51.37;;;-2.40;99.90;;;;;;4995843;28;20758;-78
2022/01/16 03:30:59;;;;;;;485.73;41.67;;;-2.40;99.90;;;;;;4994572;28;20190;-79
2022/01/16 03:33:24;;;;;;;443.83;36.50;;;-2.40;99.90;;;;;;4978245;28;20190;-78
2022/01/16 03:35:51;;;;;;;307.37;27.30;;;-2.40;99.90;;;;;;4993705;28;20210;-78
2022/01/16 03:38:17;;;;;;;437.52;30.50;;;-2.30;99.90;;;;;;4995552;28;20182;-79
2022/01/16 03:40:43;;;;;;;486.93;37.50;;;-2.30;99.90;;;;;;4993660;28;20553;-80
2022/01/16 03:43:13;;;;;;;521.47;40.67;;;-2.40;99.90;;;;;;4993572;28;20186;-80
2022/01/16 03:45:47;;;;;;;513.78;37.15;;;-2.40;99.90;;;;;;4993160;28;20472;-79
2022/01/16 03:48:14;;;;;;;274.65;27.33;;;-2.70;99.90;;;;;;4994462;28;20166;-79
2022/01/16 03:50:40;;;;;;;275.42;40.03;;;-2.80;99.90;;;;;;4992881;28;20241;-79
2022/01/16 03:53:06;;;;;;;137.45;23.02;;;-3.00;99.90;;;;;;4993890;28;20395;-79
2022/01/16 03:55:32;;;;;;;185.15;25.25;;;-2.90;99.90;;;;;;4991093;28;20292;-78
2022/01/16 03:57:58;;;;;;;91.20;20.38;;;-2.80;99.90;;;;;;4988917;28;20232;-79
2022/01/16 04:00:24;;;;;;;313.57;29.13;;;-3.00;99.90;;;;;;4990009;28;20189;-78
2022/01/16 04:02:50;;;;;;;77.10;17.67;;;-3.10;99.90;;;;;;4988141;28;20283;-80
2022/01/16 04:05:16;;;;;;;38.17;18.17;;;-3.10;99.90;;;;;;4988373;28;20698;-78
2022/01/16 04:07:41;;;;;;;31.23;16.07;;;-3.20;99.90;;;;;;4990116;28;20205;-79
2022/01/16 04:10:08;;;;;;;33.37;16.27;;;-3.20;99.90;;;;;;4989231;28;20217;-78
2022/01/16 04:12:38;;;;;;;39.42;17.88;;;-3.10;99.90;;;;;;4988711;28;20192;-78
2022/01/16 04:17:40;;;;;;;34.88;17.17;;;-3.10;99.90;;;;;;4991118;28;20185;-77
2022/01/16 04:20:07;;;;;;;51.97;17.75;;;-3.10;99.90;;;;;;4989020;28;20208;-77
2022/01/16 04:22:33;;;;;;;31.48;16.75;;;-3.20;99.90;;;;;;4989590;28;20188;-77
2022/01/16 04:24:59;;;;;;;43.80;17.57;;;-3.20;99.90;;;;;;4988096;28;20217;-81
2022/01/16 04:27:24;;;;;;;39.37;18.13;;;-3.20;99.90;;;;;;4988516;28;20186;-79
2022/01/16 04:29:50;;;;;;;35.40;15.67;;;-3.10;99.90;;;;;;4971733;28;20209;-79
2022/01/16 04:32:15;;;;;;;37.63;17.20;;;-3.20;99.90;;;;;;4989663;28;20651;-79
2022/01/16 04:34:41;;;;;;;31.10;14.63;;;-3.20;99.90;;;;;;4988466;28;20205;-78
2022/01/16 04:37:07;;;;;;;31.07;15.50;;;-3.20;99.90;;;;;;4988247;28;20611;-78
2022/01/16 04:39:35;;;;;;;30.70;15.27;;;-3.20;99.90;;;;;;4989282;28;20594;-78
2022/01/16 04:44:52;;;;;;;26.60;14.95;;;-3.30;99.90;;;;;;4978522;28;20278;-79
2022/01/16 04:47:18;;;;;;;26.63;13.95;;;-3.30;99.90;;;;;;4971417;28;20671;-80
2022/01/16 04:49:43;;;;;;;25.13;13.53;;;-3.30;99.90;;;;;;4987389;28;20185;-76
2022/01/16 04:52:09;;;;;;;30.87;14.87;;;-3.50;99.90;;;;;;4987787;28;20679;-79
2022/01/16 04:54:35;;;;;;;30.30;15.47;;;-3.50;99.90;;;;;;4987404;28;20210;-79
2022/01/16 04:57:00;;;;;;;27.73;13.67;;;-3.50;99.90;;;;;;4988694;28;20268;-76
2022/01/16 04:59:26;;;;;;;28.93;14.00;;;-3.30;99.90;;;;;;4987258;28;20623;-77
2022/01/16 05:01:52;;;;;;;26.47;13.73;;;-3.40;99.90;;;;;;4989339;28;20631;-78
2022/01/16 05:04:17;;;;;;;32.20;16.20;;;-3.40;99.90;;;;;;4988812;28;20228;-76
2022/01/16 05:06:43;;;;;;;33.20;15.30;;;-3.40;99.90;;;;;;4987105;28;20189;-77
2022/01/16 05:09:09;;;;;;;28.10;15.90;;;-3.40;99.90;;;;;;4987423;28;20185;-79
2022/01/16 05:11:34;;;;;;;28.70;15.67;;;-3.50;99.90;;;;;;4971389;28;20782;-79
2022/01/16 05:16:39;;;;;;;30.50;15.93;;;-3.50;99.90;;;;;;4988677;28;20590;-79
2022/01/16 05:19:10;;;;;;;28.67;15.23;;;-3.50;99.90;;;;;;4989400;28;20647;-78
2022/01/16 05:21:37;;;;;;;31.10;14.63;;;-3.60;99.90;;;;;;4989006;28;20190;-78
2022/01/16 05:24:08;;;;;;;26.17;13.98;;;-3.60;99.90;;;;;;4971272;28;20241;-77
2022/01/16 05:26:35;;;;;;;27.80;13.88;;;-3.70;99.90;;;;;;4988745;28;20715;-80
2022/01/16 05:29:01;;;;;;;84.80;19.33;;;-3.70;99.90;;;;;;4971011;28;20186;-78
2022/01/16 05:31:26;;;;;;;35.73;16.03;;;-3.70;99.90;;;;;;4991468;28;20220;-78
2022/01/16 05:33:52;;;;;;;46.73;17.67;;;-3.70;99.90;;;;;;4976060;28;20456;-78
2022/01/16 05:36:21;;;;;;;91.00;21.00;;;-3.80;99.90;;;;;;4991598;28;20248;-80
2022/01/16 05:38:48;;;;;;;60.97;20.88;;;-3.80;99.90;;;;;;4991071;28;20185;-77
2022/01/16 05:41:14;;;;;;;45.58;19.73;;;-3.80;99.90;;;;;;4992795;28;20244;-75
2022/01/16 05:43:40;;;;;;;37.97;16.73;;;-3.80;99.90;;;;;;4992136;28;20193;-76
2022/01/16 05:46:06;;;;;;;35.67;16.97;;;-3.90;99.90;;;;;;4993313;28;20468;-80
2022/01/16 05:48:31;;;;;;;33.67;14.67;;;-3.90;99.90;;;;;;4991835;28;20186;-78
2022/01/16 05:50:57;;;;;;;28.37;15.10;;;-4.00;99.90;;;;;;4991558;28;20424;-75
2022/01/16 05:53:23;;;;;;;26.00;15.07;;;-4.10;99.90;;;;;;4991334;28;20201;-76
2022/01/16 05:55:49;;;;;;;34.63;15.20;;;-4.00;99.90;;;;;;4991638;28;20994;-75
2022/01/16 05:58:15;;;;;;;34.73;15.53;;;-4.10;99.90;;;;;;4991624;28;20281;-78
2022/01/16 06:00:40;;;;;;;37.07;17.60;;;-4.00;99.90;;;;;;4991571;28;20186;-77
2022/01/16 06:03:08;;;;;;;79.47;33.63;;;-4.10;99.90;;;;;;4991577;28;20429;-76
2022/01/16 06:05:34;;;;;;;98.75;33.60;;;-4.10;99.90;;;;;;4991282;28;20255;-75
2022/01/16 06:08:06;;;;;;;140.23;44.13;;;-4.10;99.90;;;;;;4991552;28;20593;-77
2022/01/16 06:10:32;;;;;;;133.40;38.78;;;-4.20;99.90;;;;;;4990096;28;20178;-75
2022/01/16 06:12:57;;;;;;;99.67;35.17;;;-4.20;99.90;;;;;;4991517;28;20193;-75
2022/01/16 06:15:23;;;;;;;109.27;30.83;;;-4.20;99.90;;;;;;4991073;28;20754;-83
2022/01/16 06:17:50;;;;;;;71.72;26.77;;;-4.20;99.90;;;;;;4990532;28;20181;-76
2022/01/16 06:20:16;;;;;;;46.90;21.45;;;-4.30;99.90;;;;;;4992677;28;20203;-74
2022/01/16 06:22:45;;;;;;;50.70;20.52;;;-4.20;99.90;;;;;;4993411;28;20182;-82
2022/01/16 06:25:12;;;;;;;56.80;19.67;;;-4.30;99.90;;;;;;4992287;28;20201;-78
2022/01/16 06:27:47;;;;;;;45.70;19.02;;;-4.30;99.90;;;;;;4989849;28;20217;-77
2022/01/16 06:30:12;;;;;;;114.20;36.25;;;-4.30;99.90;;;;;;4973812;28;20279;-77
2022/01/16 06:32:38;;;;;;;55.67;22.77;;;-4.30;99.90;;;;;;4992383;28;20613;-75
2022/01/16 06:35:05;;;;;;;51.40;23.53;;;-4.30;99.90;;;;;;4991222;28;20206;-78
2022/01/16 06:37:31;;;;;;;60.17;18.27;;;-4.40;99.90;;;;;;4974582;28;20456;-78
2022/01/16 06:39:57;;;;;;;28.17;15.10;;;-4.40;99.90;;;;;;4990746;28;20178;-78
2022/01/16 06:42:22;;;;;;;27.40;15.40;;;-4.40;99.90;;;;;;4990526;28;20185;-80
2022/01/16 06:44:48;;;;;;;32.50;14.30;;;-4.30;99.90;;;;;;4990362;28;20256;-78
2022/01/16 06:47:14;;;;;;;34.67;17.60;;;-4.30;99.90;;;;;;4990306;28;20190;-78
2022/01/16 06:49:40;;;;;;;20.43;10.70;;;-4.00;99.90;;;;;;4990687;28;20303;-78
2022/01/16 06:52:06;;;;;;;11.30;6.83;;;-3.60;99.90;;;;;;4991581;28;20200;-78
2022/01/16 06:54:32;;;;;;;9.85;6.25;;;-2.50;99.90;;;;;;4992680;28;20265;-78
2022/01/16 06:56:57;;;;;;;13.73;8.43;;;-1.60;99.90;;;;;;4990556;28;20178;-78
2022/01/16 06:59:23;;;;;;;13.70;7.80;;;-1.40;99.90;;;;;;4991951;28;20201;-79
2022/01/16 07:01:49;;;;;;;15.20;8.10;;;-1.00;99.90;;;;;;4992081;28;20194;-79
2022/01/16 07:04:14;;;;;;;17.67;7.97;;;-0.70;99.90;;;;;;4990808;28;20209;-80
2022/01/16 07:06:40;;;;;;;15.70;8.00;;;-0.40;99.90;;;;;;4991456;28;20922;-79
2022/01/16 07:09:06;;;;;;;21.63;12.50;;;-0.20;99.90;;;;;;4975465;28;20221;-79
2022/01/16 07:11:31;;;;;;;12.47;8.33;;;0.10;99.90;;;;;;4992473;28;20178;-79
2022/01/16 07:13:57;;;;;;;14.87;9.07;;;0.30;99.90;;;;;;4990682;28;20205;-79
2022/01/16 07:16:23;;;;;;;14.00;8.00;;;0.40;99.90;;;;;;4992810;28;20197;-79
2022/01/16 07:18:48;;;;;;;15.20;8.80;;;0.70;99.90;;;;;;4990839;28;20201;-78
2022/01/16 07:21:15;;;;;;;19.93;11.10;;;0.80;99.90;;;;;;4974472;28;20196;-79
2022/01/16 07:23:45;;;;;;;17.70;8.60;;;0.90;99.90;;;;;;4990114;28;20194;-79
2022/01/16 07:26:14;;;;;;;18.58;9.80;;;1.00;99.90;;;;;;4989895;28;21025;-79
2022/01/16 07:28:40;;;;;;;19.05;9.50;;;1.00;99.90;;;;;;4991955;28;20186;-79
2022/01/16 07:31:06;;;;;;;22.70;11.10;;;1.10;99.90;;;;;;4991409;28;20173;-79
2022/01/16 07:33:31;;;;;;;21.57;11.50;;;1.10;99.90;;;;;;4991205;28;20591;-77
2022/01/16 07:35:57;;;;;;;22.37;11.27;;;1.10;99.90;;;;;;4990631;28;20201;-79
2022/01/16 07:38:23;;;;;;;21.10;10.33;;;1.20;99.90;;;;;;4974061;28;20190;-79
2022/01/16 07:40:48;;;;;;;23.53;12.40;;;1.20;99.90;;;;;;4991921;28;20178;-78
2022/01/16 07:43:14;;;;;;;19.47;11.57;;;1.30;99.90;;;;;;4991973;28;20182;-76
2022/01/16 07:45:40;;;;;;;24.10;13.57;;;1.30;99.90;;;;;;4989954;28;20249;-78
2022/01/16 07:48:07;;;;;;;25.07;12.00;;;1.30;99.90;;;;;;4991369;28;20266;-78
2022/01/16 07:50:33;;;;;;;21.88;12.18;;;1.30;99.90;;;;;;4991309;28;20169;-79
2022/01/16 07:52:59;;;;;;;21.38;11.73;;;1.30;99.90;;;;;;4990284;28;20252;-78
2022/01/16 07:55:26;;;;;;;27.17;14.13;;;1.30;99.90;;;;;;4973190;28;20211;-78
2022/01/16 07:57:53;;;;;;;21.77;12.95;;;1.40;99.90;;;;;;4990075;28;20182;-78
2022/01/16 08:00:20;;;;;;;21.90;12.77;;;1.60;99.90;;;;;;4988995;28;20692;-78
2022/01/16 08:02:46;;;;;;;23.52;13.20;;;1.80;99.90;;;;;;4988549;28;20200;-77
2022/01/16 08:05:12;;;;;;;24.83;14.57;;;2.00;99.90;;;;;;4988850;28;20220;-78
2022/01/16 08:07:38;;;;;;;24.30;13.07;;;2.20;99.90;;;;;;4990015;28;20425;-78
2022/01/16 08:10:04;;;;;;;21.13;12.83;;;2.20;99.90;;;;;;4990546;28;20275;-78
2022/01/16 08:12:30;;;;;;;20.40;11.95;;;2.30;99.90;;;;;;4988920;28;21297;-78
2022/01/16 08:14:55;;;;;;;25.27;15.30;;;2.50;99.90;;;;;;4989046;28;20259;-78
2022/01/16 08:17:21;;;;;;;24.83;14.00;;;2.70;99.90;;;;;;4989445;28;20187;-78
2022/01/16 08:19:47;;;;;;;22.70;13.67;;;2.80;99.90;;;;;;4987821;28;20191;-78
2022/01/16 08:22:12;;;;;;;22.87;12.57;;;3.20;99.90;;;;;;4987698;28;20561;-78
2022/01/16 08:24:38;;;;;;;24.80;14.30;;;3.50;99.90;;;;;;4987696;28;20225;-79
2022/01/16 08:27:04;;;;;;;26.87;14.70;;;4.40;99.90;;;;;;4987471;28;20218;-78
2022/01/16 08:29:29;;;;;;;27.57;14.80;;;5.10;99.90;;;;;;4987809;28;20195;-78
2022/01/16 08:31:55;;;;;;;33.40;17.60;;;6.00;98.90;;;;;;4971108;28;20216;-79
2022/01/16 08:34:21;;;;;;;28.33;15.83;;;7.10;97.60;;;;;;4988867;28;20644;-78
2022/01/16 08:36:46;;;;;;;24.30;16.50;;;7.80;94.90;;;;;;4989040;28;20194;-78
2022/01/16 08:39:14;;;;;;;31.13;19.97;;;8.40;93.80;;;;;;4988937;28;20201;-78
2022/01/16 08:41:40;;;;;;;31.60;20.03;;;9.40;90.90;;;;;;4988768;28;20190;-78
2022/01/16 08:44:06;;;;;;;31.37;19.67;;;9.70;88.20;;;;;;4989188;28;21012;-78
2022/01/16 08:46:33;;;;;;;28.77;17.67;;;10.20;84.30;;;;;;4987901;28;20465;-77
2022/01/16 08:48:59;;;;;;;27.20;19.60;;;9.80;82.00;;;;;;4988111;28;20417;-79
2022/01/16 08:51:25;;;;;;;28.70;18.27;;;9.90;82.50;;;;;;4987804;28;20420;-78
2022/01/16 08:53:50;;;;;;;27.67;19.20;;;9.00;83.60;;;;;;4987050;28;20487;-77
2022/01/16 08:56:16;;;;;;;27.17;18.23;;;8.00;88.60;;;;;;4986837;28;20609;-78
2022/01/16 08:58:42;;;;;;;28.23;18.33;;;6.90;91.80;;;;;;4989017;28;20193;-78
2022/01/16 09:01:08;;;;;;;29.20;17.40;;;6.10;94.20;;;;;;4988488;28;20573;-78
2022/01/16 09:03:34;;;;;;;33.73;19.63;;;5.00;97.10;;;;;;4987404;28;20420;-78
2022/01/16 09:06:00;;;;;;;27.80;17.67;;;4.50;99.00;;;;;;4992744;28;20214;-77
2022/01/16 09:08:26;;;;;;;29.90;18.60;;;4.30;99.90;;;;;;4990887;28;20435;-78
2022/01/16 09:10:51;;;;;;;27.07;17.57;;;3.90;99.90;;;;;;4991737;28;20436;-78
2022/01/16 09:13:17;;;;;;;29.70;17.13;;;4.50;99.90;;;;;;4992406;28;20534;-77
2022/01/16 09:15:44;;;;;;;26.07;16.27;;;4.90;99.90;;;;;;4992405;28;20213;-78
2022/01/16 09:18:11;;;;;;;35.67;17.67;;;5.10;99.10;;;;;;4992026;28;20599;-78
2022/01/16 09:20:38;;;;;;;29.23;17.27;;;4.90;98.80;;;;;;4992282;28;20189;-78
2022/01/16 09:23:04;;;;;;;35.93;17.40;;;4.50;99.90;;;;;;4992113;28;20513;-77
2022/01/16 09:25:30;;;;;;;25.90;16.63;;;4.10;99.90;;;;;;4992016;28;20460;-78
2022/01/16 09:27:56;;;;;;;25.07;16.80;;;3.80;99.90;;;;;;4993047;28;20421;-77
2022/01/16 09:30:23;;;;;;;25.00;16.00;;;3.50;99.90;;;;;;4990173;28;20431;-75
2022/01/16 09:32:48;;;;;;;28.87;17.03;;;3.50;99.90;;;;;;4990843;28;20183;-79
2022/01/16 09:35:15;;;;;;;30.27;16.90;;;3.20;99.90;;;;;;4990510;28;20455;-78
2022/01/16 09:37:42;;;;;;;32.38;18.42;;;3.20;99.90;;;;;;4990293;28;20434;-78
2022/01/16 09:40:09;;;;;;;26.30;16.73;;;3.50;99.90;;;;;;4991579;28;20261;-78
2022/01/16 09:42:35;;;;;;;31.43;17.97;;;4.30;99.90;;;;;;4991675;28;21112;-76
2022/01/16 09:45:03;;;;;;;26.10;17.13;;;5.10;99.90;;;;;;4990612;28;20465;-78
2022/01/16 09:47:29;;;;;;;29.43;15.63;;;5.50;99.90;;;;;;4991207;28;20945;-77
2022/01/16 09:49:55;;;;;;;34.87;18.30;;;6.20;98.90;;;;;;4990659;28;20528;-76
2022/01/16 09:52:20;;;;;;;27.63;16.70;;;7.30;97.70;;;;;;4990703;28;20337;-78
2022/01/16 09:54:46;;;;;;;30.83;19.40;;;8.30;94.70;;;;;;4988995;28;20205;-77
2022/01/16 09:57:12;;;;;;;33.93;18.90;;;8.20;92.60;;;;;;4990636;28;20186;-76
2022/01/16 09:59:38;;;;;;;43.03;23.37;;;7.60;93.90;;;;;;4990540;28;20189;-77
2022/01/16 10:02:05;;;;;;;25.00;17.40;;;6.70;96.10;;;;;;4990460;28;20655;-78
2022/01/16 10:04:40;;;;;;;60.30;28.57;;;6.00;97.80;;;;;;4989090;28;20444;-78
2022/01/16 10:07:09;;;;;;;51.93;25.50;;;5.70;99.60;;;;;;4990688;28;20413;-78
2022/01/16 10:09:36;;;;;;;55.47;26.70;;;5.60;99.90;;;;;;4989248;28;20423;-78
2022/01/16 10:12:05;;;;;;;50.67;25.90;;;5.50;99.90;;;;;;4989037;28;20425;-78
2022/01/16 10:14:37;;;;;;;28.57;16.83;;;5.20;99.90;;;;;;4989216;28;20829;-78
2022/01/16 10:17:16;;;;;;;32.90;16.93;;;5.00;99.90;;;;;;4989720;28;20400;-78
2022/01/16 10:19:42;;;;;;;41.43;21.80;;;4.70;99.90;;;;;;4990686;28;20424;-78
2022/01/16 10:22:11;;;;;;;27.90;17.40;;;4.70;99.90;;;;;;4990413;28;20417;-78
2022/01/16 10:24:39;;;;;;;25.07;16.80;;;5.30;99.90;;;;;;4990322;28;20452;-78
2022/01/16 10:27:07;;;;;;;29.33;17.60;;;6.70;99.90;;;;;;4990339;28;20796;-78
2022/01/16 10:29:39;;;;;;;26.70;16.83;;;7.80;96.20;;;;;;4990359;28;20483;-77
2022/01/16 10:32:25;;;;;;;25.50;17.40;;;8.60;94.80;;;;;;4990236;28;20412;-77
2022/01/16 10:35:07;;;;;;;27.87;18.20;;;10.40;91.90;;;;;;4987981;28;20476;-76
2022/01/16 10:37:34;;;;;;;27.00;17.83;;;11.50;87.90;;;;;;4988239;28;20444;-76
2022/01/16 10:40:15;;;;;;;26.43;18.53;;;12.30;77.40;;;;;;4989771;28;20432;-77
2022/01/16 10:42:48;;;;;;;29.17;19.43;;;11.80;77.90;;;;;;4989808;28;20411;-78
2022/01/16 10:45:15;;;;;;;28.27;17.87;;;12.60;72.00;;;;;;4989443;28;20473;-77
2022/01/16 10:47:42;;;;;;;27.47;18.80;;;13.10;71.30;;;;;;4990123;28;20424;-77
2022/01/16 10:50:08;;;;;;;25.63;16.90;;;14.10;69.50;;;;;;4990197;28;20427;-77
2022/01/16 10:52:45;;;;;;;29.00;18.60;;;14.20;67.20;;;;;;4990268;28;20849;-77
2022/01/16 10:55:10;;;;;;;24.27;17.60;;;14.10;65.20;;;;;;4988733;28;20448;-77
2022/01/16 10:57:36;;;;;;;29.07;19.80;;;14.20;64.80;;;;;;4990818;28;20482;-77
2022/01/16 11:00:11;;;;;;;29.63;19.60;;;13.20;66.80;;;;;;4990358;28;20223;-77
2022/01/16 11:02:38;;;;;;;25.33;18.00;;;13.40;67.70;;;;;;4990472;28;20289;-77
2022/01/16 11:05:12;;;;;;;25.60;17.63;;;13.60;67.00;;;;;;4990527;28;20475;-77
2022/01/16 11:07:39;;;;;;;26.23;18.80;;;14.00;66.40;;;;;;4989055;28;20482;-77
2022/01/16 11:10:35;;;;;;;25.77;18.60;;;13.80;67.20;;;;;;4990309;28;20480;-77
2022/01/16 11:13:05;;;;;;;29.90;17.90;;;13.40;65.50;;;;;;4986958;28;20459;-78
2022/01/16 11:15:32;;;;;;;29.40;19.93;;;12.90;67.80;;;;;;4988751;28;20908;-77
2022/01/16 11:17:59;;;;;;;26.83;19.57;;;12.80;67.30;;;;;;4990405;28;20432;-77
2022/01/16 11:20:45;;;;;;;27.13;18.57;;;13.30;69.20;;;;;;4990535;28;20470;-77
2022/01/16 11:23:27;;;;;;;25.90;18.33;;;12.70;66.50;;;;;;4989199;28;20416;-77
2022/01/16 11:26:02;;;;;;;24.23;16.27;;;12.90;68.30;;;;;;4990084;28;20472;-77
2022/01/16 11:28:27;;;;;;;32.60;18.10;;;12.20;68.00;;;;;;4988633;28;20462;-77
2022/01/16 11:31:04;;;;;;;25.90;18.00;;;12.10;71.40;;;;;;4989880;28;20451;-77
2022/01/16 11:33:33;;;;;;;27.30;17.73;;;11.00;71.70;;;;;;4990024;28;20490;-77
2022/01/16 11:36:13;;;;;;;26.37;17.83;;;10.30;78.40;;;;;;4989418;28;20457;-77
2022/01/16 11:39:00;;;;;;;26.77;17.20;;;10.10;80.40;;;;;;4989623;28;20802;-77
2022/01/16 11:41:32;;;;;;;25.13;17.80;;;9.50;83.50;;;;;;4989733;28;20981;-77
2022/01/16 11:44:19;;;;;;;25.03;17.70;;;9.30;87.80;;;;;;4989586;28;20452;-77
2022/01/16 11:46:50;;;;;;;28.33;18.67;;;9.00;90.20;;;;;;4987714;28;20473;-78
2022/01/16 11:49:19;;;;;;;30.67;18.67;;;8.60;90.60;;;;;;4990659;28;20426;-78
2022/01/16 11:51:51;;;;;;;27.97;18.67;;;8.00;91.80;;;;;;4990235;28;20451;-78
2022/01/16 11:54:19;;;;;;;25.73;17.50;;;7.80;92.80;;;;;;4989051;28;20578;-78
2022/01/16 11:56:45;;;;;;;30.70;18.30;;;7.90;93.30;;;;;;4989071;28;21254;-78
2022/01/16 11:59:12;;;;;;;27.30;17.50;;;8.10;93.60;;;;;;4989211;28;20464;-77
2022/01/16 12:01:46;;;;;;;26.70;16.90;;;8.10;93.80;;;;;;4988680;28;20491;-78
2022/01/16 12:04:29;;;;;;;31.80;19.00;;;7.90;93.40;;;;;;4988701;28;20265;-78
2022/01/16 12:07:21;;;;;;;27.37;17.60;;;7.70;94.20;;;;;;4988363;28;20804;-77
2022/01/16 12:09:49;;;;;;;28.43;17.17;;;7.70;95.10;;;;;;4988163;28;20475;-77
2022/01/16 12:12:15;;;;;;;30.83;19.07;;;7.40;95.90;;;;;;4988285;28;20601;-77
2022/01/16 12:15:01;;;;;;;28.60;18.10;;;7.10;96.10;;;;;;4988158;28;21113;-77
2022/01/16 12:17:40;;;;;;;24.17;17.47;;;6.90;96.70;;;;;;4987109;28;20194;-78
2022/01/16 12:20:15;;;;;;;30.27;18.03;;;6.70;97.90;;;;;;4988551;28;21092;-76
2022/01/16 12:23:04;;;;;;;29.50;18.20;;;6.60;99.00;;;;;;4988117;28;20427;-78
2022/01/16 12:25:37;;;;;;;33.77;20.00;;;6.50;99.90;;;;;;4988262;28;20503;-78
2022/01/16 12:28:15;;;;;;;34.50;18.67;;;6.20;99.90;;;;;;4986853;28;20429;-78
2022/01/16 12:30:55;;;;;;;29.87;18.57;;;6.10;99.90;;;;;;4987017;28;20421;-78
2022/01/16 12:33:26;;;;;;;28.10;18.93;;;6.10;99.90;;;;;;4988468;28;20417;-78
2022/01/16 12:35:54;;;;;;;32.03;20.07;;;6.00;99.90;;;;;;4986818;28;20977;-78
2022/01/16 12:38:27;;;;;;;40.07;23.10;;;5.90;99.90;;;;;;4988555;28;20421;-78
2022/01/16 12:41:39;;;;;;;33.50;21.63;;;5.60;99.90;;;;;;4992542;28;20981;-77
2022/01/16 12:44:15;;;;;;;32.73;21.57;;;5.30;99.90;;;;;;4989161;28;20946;-78
2022/01/16 12:46:40;;;;;;;34.13;21.20;;;4.80;99.90;;;;;;4992110;28;20471;-78
2022/01/16 12:49:11;;;;;;;35.27;21.30;;;4.40;99.90;;;;;;4992296;28;20785;-79
2022/01/16 12:51:40;;;;;;;32.80;21.15;;;4.20;99.90;;;;;;4990527;28;20185;-78
2022/01/16 12:54:09;;;;;;;30.13;19.63;;;4.00;99.90;;;;;;4990549;28;20224;-78
2022/01/16 12:56:44;;;;;;;38.87;22.00;;;3.80;99.90;;;;;;4990910;28;20459;-78
2022/01/16 12:59:35;;;;;;;34.30;21.97;;;3.60;99.90;;;;;;4992043;28;20455;-78
2022/01/16 13:02:03;;;;;;;37.10;21.52;;;3.50;99.90;;;;;;4992365;28;20431;-78
2022/01/16 13:04:34;;;;;;;35.10;21.25;;;3.40;99.90;;;;;;4992219;28;20214;-78
2022/01/16 13:07:03;;;;;;;37.70;21.03;;;3.40;99.90;;;;;;4992593;28;20188;-79
2022/01/16 13:09:30;;;;;;;36.80;21.50;;;3.30;99.90;;;;;;4990630;28;20419;-78
2022/01/16 13:12:01;;;;;;;55.08;28.77;;;3.30;99.90;;;;;;4991904;28;20415;-77
2022/01/16 13:14:36;;;;;;;45.73;25.30;;;3.10;99.90;;;;;;4992272;28;20212;-78
2022/01/16 13:17:08;;;;;;;37.30;21.10;;;3.10;99.90;;;;;;4974596;28;20460;-78
2022/01/16 13:20:02;;;;;;;29.48;20.33;;;3.10;99.90;;;;;;4990554;28;20960;-79
2022/01/16 13:22:27;;;;;;;33.70;20.50;;;3.10;99.90;;;;;;4991531;28;20615;-77
2022/01/16 13:24:58;;;;;;;35.30;21.25;;;3.10;99.90;;;;;;4990198;28;20319;-78